createdAt,value
2023-11-12T00:01:23.703Z,15.75
2023-11-12T00:03:25.256Z,31.40
2023-11-12T00:05:26.829Z,20.45
2023-11-12T00:07:28.399Z,16.20
2023-11-12T00:09:30.310Z,18.75
2023-11-12T00:11:35.815Z,13.57
2023-11-12T00:13:37.375Z,19.88
2023-11-12T00:15:39.548Z,17.65
2023-11-12T00:17:43.406Z,19.25
2023-11-12T00:19:45.249Z,22.73
2023-11-12T00:21:49.534Z,15.68
2023-11-12T00:23:52.437Z,16.52
2023-11-12T00:25:54.736Z,15.57
2023-11-12T00:27:56.370Z,10.18
2023-11-12T00:29:57.882Z,15.07
2023-11-12T00:31:59.552Z,13.98
2023-11-12T00:34:01.130Z,13.52
2023-11-12T00:36:02.794Z,12.93
2023-11-12T00:38:05.493Z,12.52
2023-11-12T00:40:07.754Z,11.60
2023-11-12T00:42:09.273Z,16.60
2023-11-12T00:44:20.020Z,16.45
2023-11-12T00:46:44.767Z,12.77
2023-11-12T00:49:09.781Z,14.23
2023-11-12T00:51:23.850Z,12.18
2023-11-12T00:53:32.945Z,12.68
2023-11-12T00:55:36.130Z,14.85
2023-11-12T00:57:42.346Z,15.65
2023-11-12T00:59:50.058Z,11.60
2023-11-12T01:01:54.247Z,14.85
2023-11-12T01:03:58.086Z,17.00
2023-11-12T01:06:06.681Z,10.27
2023-11-12T01:08:13.192Z,9.82
2023-11-12T01:10:16.671Z,14.52
2023-11-12T01:12:24.965Z,16.00
2023-11-12T01:14:29.656Z,10.95
2023-11-12T01:16:33.951Z,12.60
2023-11-12T01:18:39.247Z,12.38
2023-11-12T01:20:43.247Z,16.25
2023-11-12T01:22:45.571Z,12.38
2023-11-12T01:24:48.067Z,12.10
2023-11-12T01:26:51.741Z,8.75
2023-11-12T01:28:55.863Z,12.93
2023-11-12T01:31:01.796Z,12.48
2023-11-12T01:33:06.133Z,12.30
2023-11-12T01:37:13.075Z,10.57
2023-11-12T01:39:16.850Z,5.07
2023-11-12T01:41:21.168Z,12.73
2023-11-12T01:43:23.327Z,19.67
2023-11-12T01:45:25.153Z,10.60
2023-11-12T01:47:27.035Z,13.48
2023-11-12T01:49:28.572Z,9.52
2023-11-12T01:51:31.561Z,15.75
2023-11-12T01:53:34.160Z,10.55
2023-11-12T01:55:36.134Z,21.88
2023-11-12T01:57:40.804Z,15.32
2023-11-12T01:59:42.369Z,10.23
2023-11-12T02:01:44.142Z,14.60
2023-11-12T02:03:46.361Z,10.55
2023-11-12T02:05:47.911Z,7.53
2023-11-12T02:07:50.314Z,9.77
2023-11-12T02:09:56.286Z,8.27
2023-11-12T02:11:58.071Z,10.10
2023-11-12T02:13:59.594Z,14.63
2023-11-12T02:16:01.065Z,8.80
2023-11-12T02:18:02.688Z,13.15
2023-11-12T02:20:05.376Z,6.15
2023-11-12T02:22:06.994Z,15.75
2023-11-12T02:24:08.763Z,13.65
2023-11-12T02:26:10.490Z,11.98
2023-11-12T02:28:13.903Z,8.90
2023-11-12T02:30:16.895Z,10.80
2023-11-12T02:32:19.584Z,10.30
2023-11-12T02:34:22.476Z,9.20
2023-11-12T02:36:26.681Z,8.98
2023-11-12T02:38:28.305Z,7.55
2023-11-12T02:40:29.858Z,8.45
2023-11-12T02:42:31.482Z,7.18
2023-11-12T02:44:33.310Z,11.02
2023-11-12T02:46:35.633Z,9.20
2023-11-12T02:48:51.549Z,8.88
2023-11-12T02:50:53.017Z,15.05
2023-11-12T02:52:54.948Z,6.35
2023-11-12T02:54:56.472Z,7.75
2023-11-12T02:56:57.941Z,8.90
2023-11-12T02:58:59.455Z,7.80
2023-11-12T03:01:01.235Z,12.05
2023-11-12T03:03:03.096Z,16.55
2023-11-12T03:05:04.963Z,10.30
2023-11-12T03:07:06.482Z,7.88
2023-11-12T03:09:10.686Z,12.70
2023-11-12T03:13:15.629Z,10.05
2023-11-12T03:15:17.227Z,5.78
2023-11-12T03:17:18.745Z,6.05
2023-11-12T03:19:20.194Z,7.53
2023-11-12T03:21:21.748Z,11.30
2023-11-12T03:23:23.569Z,7.38
2023-11-12T03:25:25.448Z,15.13
2023-11-12T03:27:27.087Z,7.43
2023-11-12T03:29:28.708Z,6.43
2023-11-12T03:31:30.277Z,11.95
2023-11-12T03:33:32.904Z,11.65
2023-11-12T03:35:34.676Z,13.27
2023-11-12T03:37:36.183Z,8.70
2023-11-12T03:39:37.849Z,5.47
2023-11-12T03:41:39.434Z,7.93
2023-11-12T03:43:41.026Z,7.32
2023-11-12T03:45:42.577Z,6.03
2023-11-12T03:47:44.183Z,16.25
2023-11-12T03:49:45.952Z,15.27
2023-11-12T03:51:48.366Z,14.32
2023-11-12T03:53:51.710Z,6.47
2023-11-12T03:55:56.232Z,7.20
2023-11-12T03:58:01.176Z,13.98
2023-11-12T04:00:07.717Z,12.75
2023-11-12T04:02:11.818Z,5.20
2023-11-12T04:04:14.958Z,6.72
2023-11-12T04:06:18.196Z,17.73
2023-11-12T04:08:21.747Z,11.48
2023-11-12T04:10:25.265Z,12.85
2023-11-12T04:12:28.925Z,4.25
2023-11-12T04:14:32.639Z,10.90
2023-11-12T04:16:36.811Z,3.63
2023-11-12T04:18:39.980Z,19.40
2023-11-12T04:20:43.327Z,8.77
2023-11-12T04:22:46.339Z,5.80
2023-11-12T04:24:48.693Z,6.88
2023-11-12T04:26:52.207Z,9.15
2023-11-12T04:28:56.424Z,9.18
2023-11-12T04:30:59.893Z,5.05
2023-11-12T04:33:02.947Z,7.65
2023-11-12T04:35:05.177Z,7.13
2023-11-12T04:37:07.132Z,11.35
2023-11-12T04:39:08.870Z,5.45
2023-11-12T04:41:12.938Z,4.53
2023-11-12T04:43:14.486Z,11.40
2023-11-12T04:45:16.064Z,9.75
2023-11-12T04:47:18.015Z,9.00
2023-11-12T04:49:19.465Z,7.03
2023-11-12T04:51:21.736Z,6.13
2023-11-12T04:53:23.224Z,8.88
2023-11-12T04:55:25.525Z,9.07
2023-11-12T04:57:27.041Z,3.50
2023-11-12T04:59:28.492Z,12.40
2023-11-12T05:01:31.563Z,4.40
2023-11-12T05:03:33.445Z,7.88
2023-11-12T05:05:37.473Z,9.07
2023-11-12T05:07:39.521Z,6.07
2023-11-12T05:09:41.277Z,4.85
2023-11-12T05:11:42.740Z,7.65
2023-11-12T05:13:44.217Z,4.45
2023-11-12T05:15:45.767Z,4.03
2023-11-12T05:17:47.316Z,7.72
2023-11-12T05:19:49.181Z,5.18
2023-11-12T05:21:50.727Z,8.75
2023-11-12T05:23:52.190Z,10.13
2023-11-12T05:25:56.069Z,16.27
2023-11-12T05:27:57.663Z,8.48
2023-11-12T05:30:01.269Z,7.07
2023-11-12T05:32:02.799Z,10.75
2023-11-12T05:34:04.371Z,6.35
2023-11-12T05:36:06.182Z,9.25
2023-11-12T05:38:07.713Z,5.18
2023-11-12T05:40:09.533Z,16.20
2023-11-12T05:42:11.022Z,16.13
2023-11-12T05:44:12.558Z,7.47
2023-11-12T05:46:14.579Z,7.80
2023-11-12T05:48:16.256Z,7.25
2023-11-12T05:50:17.788Z,8.20
2023-11-12T05:52:19.306Z,6.15
2023-11-12T05:54:20.825Z,5.70
2023-11-12T05:56:22.545Z,11.98
2023-11-12T05:58:24.146Z,12.02
2023-11-12T06:00:25.729Z,5.35
2023-11-12T06:02:27.250Z,8.27
2023-11-12T06:04:28.800Z,12.15
2023-11-12T06:06:30.419Z,6.10
2023-11-12T06:08:32.617Z,9.82
2023-11-12T06:10:34.235Z,10.52
2023-11-12T06:12:35.707Z,14.13
2023-11-12T06:14:37.831Z,11.10
2023-11-12T06:16:39.443Z,8.85
2023-11-12T06:18:41.199Z,13.25
2023-11-12T06:20:42.802Z,9.75
2023-11-12T06:22:44.285Z,10.73
2023-11-12T06:24:45.840Z,20.15
2023-11-12T06:26:47.529Z,8.73
2023-11-12T06:28:52.561Z,10.50
2023-11-12T06:30:55.402Z,13.43
2023-11-12T06:32:57.547Z,11.07
2023-11-12T06:34:59.161Z,10.25
2023-11-12T06:37:00.980Z,9.93
2023-11-12T06:39:02.864Z,11.32
2023-11-12T06:41:04.409Z,11.77
2023-11-12T06:43:05.878Z,14.20
2023-11-12T06:45:07.689Z,11.32
2023-11-12T06:47:09.189Z,9.98
2023-11-12T06:49:11.799Z,9.10
2023-11-12T06:51:23.262Z,7.95
2023-11-12T06:53:24.781Z,17.00
2023-11-12T06:55:26.512Z,10.75
2023-11-12T06:57:28.374Z,14.15
2023-11-12T06:59:31.916Z,8.13
2023-11-12T07:01:39.097Z,7.43
2023-11-12T07:03:51.092Z,11.90
2023-11-12T07:05:55.687Z,12.77
2023-11-12T07:08:00.048Z,10.82
2023-11-12T07:12:07.655Z,9.48
2023-11-12T07:14:11.178Z,10.65
2023-11-12T07:16:17.852Z,11.88
2023-11-12T07:18:21.352Z,7.72
2023-11-12T07:20:30.636Z,6.45
2023-11-12T07:22:34.030Z,14.50
2023-11-12T07:24:38.426Z,13.10
2023-11-12T07:26:42.357Z,10.25
2023-11-12T07:28:47.374Z,10.80
2023-11-12T07:30:51.477Z,14.68
2023-11-12T07:32:55.770Z,10.82
2023-11-12T07:35:00.569Z,17.05
2023-11-12T07:37:06.286Z,17.80
2023-11-12T07:39:09.636Z,18.60
2023-11-12T07:41:11.761Z,16.87
2023-11-12T07:43:13.919Z,13.27
2023-11-12T07:45:21.320Z,14.30
2023-11-12T07:47:26.970Z,18.02
2023-11-12T07:49:28.453Z,13.32
2023-11-12T07:51:30.000Z,15.23
2023-11-12T07:53:31.485Z,12.50
2023-11-12T07:55:33.004Z,18.50
2023-11-12T07:57:34.504Z,39.70
2023-11-12T07:59:36.038Z,15.55
2023-11-12T08:01:37.696Z,10.77
2023-11-12T08:03:40.049Z,16.63
2023-11-12T08:05:41.867Z,11.35
2023-11-12T08:07:43.347Z,10.05
2023-11-12T08:09:47.804Z,14.05
2023-11-12T08:11:49.330Z,17.75
2023-11-12T08:13:51.013Z,13.43
2023-11-12T08:15:52.724Z,14.23
2023-11-12T08:17:54.333Z,16.50
2023-11-12T08:19:55.880Z,10.23
2023-11-12T08:21:57.687Z,16.65
2023-11-12T08:24:00.123Z,11.68
2023-11-12T08:26:03.394Z,10.85
2023-11-12T08:28:05.449Z,9.65
2023-11-12T08:30:07.239Z,18.35
2023-11-12T08:32:08.856Z,15.07
2023-11-12T08:34:10.449Z,15.23
2023-11-12T08:36:12.256Z,19.33
2023-11-12T08:38:13.833Z,12.82
2023-11-12T08:40:18.579Z,12.50
2023-11-12T08:42:21.514Z,11.18
2023-11-12T08:44:23.087Z,14.18
2023-11-12T08:46:24.706Z,14.07
2023-11-12T08:48:32.687Z,14.52
2023-11-12T08:50:34.375Z,10.00
2023-11-12T08:52:37.532Z,7.68
2023-11-12T08:54:40.173Z,16.33
2023-11-12T08:56:41.726Z,21.05
2023-11-12T08:58:43.429Z,11.30
2023-11-12T09:00:45.023Z,13.30
2023-11-12T09:02:47.428Z,12.43
2023-11-12T09:04:49.212Z,13.68
2023-11-12T09:06:50.719Z,16.55
2023-11-12T09:08:52.298Z,10.88
2023-11-12T09:10:53.782Z,9.02
2023-11-12T09:12:55.405Z,7.03
2023-11-12T09:14:56.989Z,14.48
2023-11-12T09:16:58.640Z,12.98
2023-11-12T09:19:01.157Z,17.33
2023-11-12T09:21:02.786Z,6.20
2023-11-12T09:23:04.496Z,12.77
2023-11-12T09:25:11.256Z,12.70
2023-11-12T09:27:13.758Z,14.88
2023-11-12T09:29:15.340Z,16.20
2023-11-12T09:31:17.280Z,9.75
2023-11-12T09:33:19.172Z,12.82
2023-11-12T09:35:20.712Z,12.15
2023-11-12T09:37:22.285Z,8.98
2023-11-12T09:39:24.823Z,16.73
2023-11-12T09:41:27.433Z,8.85
2023-11-12T09:43:29.867Z,11.70
2023-11-12T09:45:32.299Z,11.15
2023-11-12T09:48:02.735Z,8.35
2023-11-12T09:50:05.427Z,9.48
2023-11-12T09:52:07.057Z,7.82
2023-11-12T09:54:09.631Z,13.80
2023-11-12T09:56:11.317Z,10.48
2023-11-12T09:58:12.981Z,10.15
2023-11-12T10:00:14.985Z,15.50
2023-11-12T10:02:19.470Z,15.07
2023-11-12T10:04:22.941Z,11.57
2023-11-12T10:06:35.885Z,9.10
2023-11-12T10:08:45.411Z,9.98
2023-11-12T10:10:55.807Z,19.77
2023-11-12T10:13:07.011Z,5.40
2023-11-12T10:15:13.009Z,10.48
2023-11-12T10:17:17.575Z,9.88
2023-11-12T10:19:20.041Z,9.77
2023-11-12T10:21:26.678Z,11.52
2023-11-12T10:23:33.505Z,6.63
2023-11-12T10:25:39.688Z,9.02
2023-11-12T10:27:57.020Z,13.30
2023-11-12T10:30:21.357Z,8.77
2023-11-12T10:32:28.209Z,7.82
2023-11-12T10:34:35.137Z,7.68
2023-11-12T10:36:41.580Z,11.10
2023-11-12T10:38:51.165Z,9.75
2023-11-12T10:40:58.760Z,9.10
2023-11-12T10:43:11.187Z,14.70
2023-11-12T10:45:16.369Z,5.32
2023-11-12T10:47:20.852Z,6.20
2023-11-12T10:49:26.318Z,10.02
2023-11-12T10:51:30.817Z,4.57
2023-11-12T10:53:34.899Z,6.22
2023-11-12T10:57:43.627Z,5.85
2023-11-12T10:59:47.497Z,5.95
2023-11-12T11:01:52.423Z,8.23
2023-11-12T11:03:57.408Z,9.00
2023-11-12T11:06:07.199Z,15.00
2023-11-12T11:08:10.851Z,3.75
2023-11-12T11:10:13.002Z,5.45
2023-11-12T11:12:14.970Z,8.77
2023-11-12T11:14:23.235Z,3.63
2023-11-12T11:16:44.991Z,7.80
2023-11-12T11:18:50.686Z,6.05
2023-11-12T11:21:10.029Z,5.57
2023-11-12T11:23:37.689Z,9.35
2023-11-12T11:25:39.258Z,5.70
2023-11-12T11:27:40.832Z,6.38
2023-11-12T11:30:17.667Z,6.70
2023-11-12T11:32:19.466Z,5.95
2023-11-12T11:34:38.053Z,6.57
2023-11-12T11:36:41.475Z,1.85
2023-11-12T11:38:58.582Z,3.47
2023-11-12T11:41:00.286Z,1.33
2023-11-12T11:43:20.514Z,2.88
2023-11-12T11:45:22.063Z,2.70
2023-11-12T11:47:25.264Z,2.15
2023-11-12T11:49:26.822Z,2.63
2023-11-12T11:51:31.910Z,5.15
2023-11-12T11:53:34.373Z,3.55
2023-11-12T11:55:36.006Z,5.95
2023-11-12T11:57:47.597Z,4.07
2023-11-12T11:59:49.967Z,1.67
2023-11-12T12:01:54.516Z,1.23
2023-11-12T12:04:06.452Z,2.33
2023-11-12T12:06:18.192Z,3.25
2023-11-12T12:08:20.029Z,2.33
2023-11-12T12:10:26.692Z,2.83
2023-11-12T12:12:28.511Z,3.67
2023-11-12T12:14:36.201Z,4.55
2023-11-12T12:16:38.348Z,2.83
2023-11-12T12:18:42.055Z,0.95
2023-11-12T12:20:43.634Z,2.35
2023-11-12T12:22:45.454Z,2.72
2023-11-12T12:24:47.828Z,4.32
2023-11-12T12:26:49.635Z,7.63
2023-11-12T12:28:52.212Z,3.15
2023-11-12T12:30:54.184Z,9.45
2023-11-12T12:32:56.410Z,2.97
2023-11-12T12:34:58.834Z,0.47
2023-11-12T12:37:09.255Z,3.40
2023-11-12T12:39:11.468Z,2.97
2023-11-12T12:41:13.923Z,2.63
2023-11-12T12:43:15.571Z,3.33
2023-11-12T12:45:17.746Z,4.43
2023-11-12T12:47:32.137Z,0.40
2023-11-12T12:49:33.831Z,0.93
2023-11-12T12:51:37.452Z,4.03
2023-11-12T12:53:40.333Z,3.42
2023-11-12T12:55:44.359Z,4.95
2023-11-12T12:57:50.969Z,2.42
2023-11-12T12:59:53.016Z,2.78
2023-11-12T13:01:54.857Z,4.50
2023-11-12T13:03:56.420Z,5.78
2023-11-12T13:05:58.891Z,3.67
2023-11-12T13:08:00.724Z,3.17
2023-11-12T13:10:06.424Z,3.22
2023-11-12T13:12:16.751Z,4.57
2023-11-12T13:14:29.881Z,2.58
2023-11-12T13:16:46.043Z,4.18
2023-11-12T13:18:50.199Z,2.55
2023-11-12T13:20:53.732Z,3.67
2023-11-12T13:22:57.679Z,2.30
2023-11-12T13:25:01.885Z,4.18
2023-11-12T13:27:06.152Z,3.35
2023-11-12T13:29:09.032Z,6.45
2023-11-12T13:31:13.345Z,5.72
2023-11-12T13:33:16.669Z,1.60
2023-11-12T13:35:20.466Z,2.95
2023-11-12T13:37:22.984Z,4.00
2023-11-12T13:39:26.755Z,9.13
2023-11-12T13:41:32.212Z,5.05
2023-11-12T13:43:36.352Z,2.83
2023-11-12T13:45:41.295Z,2.30
2023-11-12T13:47:45.744Z,9.18
2023-11-12T13:49:49.806Z,5.55
2023-11-12T13:51:57.764Z,4.97
2023-11-12T13:54:00.894Z,4.30
2023-11-12T13:56:04.714Z,3.30
2023-11-12T13:58:07.486Z,3.78
2023-11-12T14:00:12.709Z,3.30
2023-11-12T14:02:14.747Z,4.75
2023-11-12T14:04:16.337Z,6.32
2023-11-12T14:06:18.611Z,5.45
2023-11-12T14:08:20.678Z,6.85
2023-11-12T14:10:23.113Z,8.57
2023-11-12T14:12:25.957Z,2.53
2023-11-12T14:14:29.123Z,3.33
2023-11-12T14:16:30.712Z,11.13
2023-11-12T14:18:32.408Z,4.90
2023-11-12T14:20:34.885Z,6.55
2023-11-12T14:22:37.828Z,5.65
2023-11-12T14:24:39.351Z,8.90
2023-11-12T14:26:43.959Z,3.38
2023-11-12T14:28:45.558Z,1.23
2023-11-12T14:30:50.335Z,2.33
2023-11-12T14:32:52.293Z,3.47
2023-11-12T14:34:53.917Z,6.43
2023-11-12T14:36:55.590Z,9.70
2023-11-12T14:38:57.306Z,6.43
2023-11-12T14:40:58.982Z,10.88
2023-11-12T14:43:01.898Z,9.95
2023-11-12T14:45:06.322Z,3.80
2023-11-12T14:47:07.978Z,3.80
2023-11-12T14:49:10.062Z,16.08
2023-11-12T14:51:11.736Z,4.10
2023-11-12T14:53:13.485Z,7.78
2023-11-12T14:55:24.548Z,5.40
2023-11-12T14:57:27.851Z,3.65
2023-11-12T14:59:29.471Z,7.72
2023-11-12T15:01:31.636Z,6.28
2023-11-12T15:03:33.204Z,6.78
2023-11-12T15:05:35.171Z,9.10
2023-11-12T15:07:39.750Z,10.80
2023-11-12T15:09:42.085Z,7.13
2023-11-12T15:11:43.732Z,5.68
2023-11-12T15:13:45.711Z,15.23
2023-11-12T15:15:48.532Z,8.93
2023-11-12T15:17:52.937Z,10.35
2023-11-12T15:19:55.431Z,8.65
2023-11-12T15:21:56.999Z,7.53
2023-11-12T15:23:58.626Z,8.32
2023-11-12T15:26:00.329Z,8.68
2023-11-12T15:28:01.917Z,10.55
2023-11-12T15:30:04.415Z,7.22
2023-11-12T15:32:08.070Z,8.45
2023-11-12T15:34:11.927Z,5.50
2023-11-12T15:36:13.962Z,10.32
2023-11-12T15:38:16.006Z,7.13
2023-11-12T15:40:24.222Z,8.38
2023-11-12T15:42:26.618Z,12.85
2023-11-12T15:44:28.424Z,8.15
2023-11-12T15:46:30.046Z,5.65
2023-11-12T15:48:32.305Z,3.15
2023-11-12T15:50:33.862Z,5.53
2023-11-12T15:52:35.907Z,6.18
2023-11-12T15:54:37.760Z,5.43
2023-11-12T15:56:39.491Z,6.60
2023-11-12T15:58:42.461Z,4.72
2023-11-12T16:00:44.398Z,4.35
2023-11-12T16:02:47.108Z,8.25
2023-11-12T16:04:49.050Z,7.57
2023-11-12T16:06:50.739Z,11.68
2023-11-12T16:08:56.347Z,7.00
2023-11-12T16:10:58.600Z,12.30
2023-11-12T16:13:00.709Z,7.95
2023-11-12T16:15:05.742Z,11.77
2023-11-12T16:17:07.478Z,7.55
2023-11-12T16:19:11.857Z,12.05
2023-11-12T16:21:20.737Z,8.75
2023-11-12T16:23:24.421Z,8.55
2023-11-12T16:25:27.997Z,11.35
2023-11-12T16:27:31.089Z,13.85
2023-11-12T16:29:35.071Z,9.75
2023-11-12T16:31:37.208Z,9.93
2023-11-12T16:33:40.516Z,6.32
2023-11-12T16:35:44.436Z,7.70
2023-11-12T16:37:50.159Z,7.85
2023-11-12T16:39:54.067Z,5.10
2023-11-12T16:41:57.993Z,8.38
2023-11-12T16:44:01.461Z,16.10
2023-11-12T16:46:05.886Z,12.60
2023-11-12T16:48:09.249Z,11.82
2023-11-12T16:50:15.062Z,9.27
2023-11-12T16:52:19.156Z,13.52
2023-11-12T16:54:22.701Z,11.55
2023-11-12T16:56:25.969Z,12.80
2023-11-12T16:58:28.076Z,28.20
2023-11-12T17:00:30.395Z,13.88
2023-11-12T17:02:32.111Z,17.30
2023-11-12T17:04:34.946Z,18.75
2023-11-12T17:06:36.681Z,12.70
2023-11-12T17:08:38.234Z,17.75
2023-11-12T17:10:40.271Z,22.33
2023-11-12T17:12:42.288Z,18.95
2023-11-12T17:14:45.414Z,23.08
2023-11-12T17:16:47.260Z,20.70
2023-11-12T17:18:48.944Z,28.27
2023-11-12T17:20:50.468Z,26.88
2023-11-12T17:22:52.028Z,31.50
2023-11-12T17:24:53.726Z,35.83
2023-11-12T17:26:56.202Z,53.80
2023-11-12T17:28:59.197Z,32.65
2023-11-12T17:31:00.759Z,33.38
2023-11-12T17:33:02.713Z,28.27
2023-11-12T17:35:05.535Z,23.60
2023-11-12T17:37:07.635Z,73.15
2023-11-12T17:39:10.867Z,39.17
2023-11-12T17:41:12.391Z,22.67
2023-11-12T17:43:14.027Z,67.85
2023-11-12T17:45:16.801Z,55.42
2023-11-12T17:47:18.388Z,90.82
2023-11-12T17:49:21.167Z,171.68
2023-11-12T17:51:24.084Z,177.95
2023-11-12T17:53:25.627Z,85.20
2023-11-12T17:55:27.949Z,73.25
2023-11-12T17:57:30.586Z,40.13
2023-11-12T17:59:32.230Z,53.72
2023-11-12T18:01:34.382Z,65.18
2023-11-12T18:03:36.163Z,167.52
2023-11-12T18:05:37.826Z,88.22
2023-11-12T18:07:41.678Z,126.90
2023-11-12T18:09:43.348Z,34.30
2023-11-12T18:11:49.337Z,35.75
2023-11-12T18:13:50.967Z,119.10
2023-11-12T18:15:52.613Z,298.52
2023-11-12T18:17:54.153Z,95.93
2023-11-12T18:19:56.635Z,57.67
2023-11-12T18:21:58.337Z,30.05
2023-11-12T18:24:01.368Z,48.55
2023-11-12T18:26:02.990Z,165.80
2023-11-12T18:28:11.032Z,34.58
2023-11-12T18:30:12.935Z,199.75
2023-11-12T18:32:14.914Z,393.45
2023-11-12T18:34:16.676Z,295.27
2023-11-12T18:36:18.240Z,81.22
2023-11-12T18:38:20.113Z,63.80
2023-11-12T18:40:21.714Z,146.05
2023-11-12T18:42:25.072Z,142.38
2023-11-12T18:44:26.602Z,131.70
2023-11-12T18:46:28.161Z,35.63
2023-11-12T18:48:30.216Z,105.45
2023-11-12T18:50:33.355Z,43.40
2023-11-12T18:52:34.855Z,30.77
2023-11-12T18:54:36.484Z,70.97
2023-11-12T18:56:38.025Z,74.75
2023-11-12T18:58:40.446Z,37.38
2023-11-12T19:00:42.004Z,36.58
2023-11-12T19:02:43.587Z,57.22
2023-11-12T19:04:47.833Z,38.33
2023-11-12T19:06:50.163Z,48.53
2023-11-12T19:08:51.848Z,50.67
2023-11-12T19:10:53.427Z,45.47
2023-11-12T19:12:55.402Z,51.25
2023-11-12T19:14:56.945Z,37.30
2023-11-12T19:16:59.092Z,54.53
2023-11-12T19:19:01.844Z,37.40
2023-11-12T19:21:05.589Z,43.45
2023-11-12T19:23:11.176Z,62.15
2023-11-12T19:25:25.236Z,46.70
2023-11-12T19:27:41.899Z,35.47
2023-11-12T19:29:50.123Z,50.35
2023-11-12T19:34:00.158Z,41.77
2023-11-12T19:36:07.616Z,53.50
2023-11-12T19:38:11.123Z,114.55
2023-11-12T19:40:20.970Z,66.25
2023-11-12T19:42:25.053Z,45.95
2023-11-12T19:44:28.677Z,49.88
2023-11-12T19:46:32.298Z,59.75
2023-11-12T19:48:38.368Z,56.55
2023-11-12T19:50:42.413Z,54.03
2023-11-12T19:52:44.106Z,56.40
2023-11-12T19:54:49.273Z,53.88
2023-11-12T19:56:55.258Z,54.28
2023-11-12T19:59:01.472Z,55.13
2023-11-12T20:01:06.504Z,54.15
2023-11-12T20:03:12.452Z,63.60
2023-11-12T20:05:15.433Z,68.15
2023-11-12T20:07:19.243Z,67.15
2023-11-12T20:11:23.906Z,47.20
2023-11-12T20:13:29.599Z,56.60
2023-11-12T20:15:38.138Z,75.32
2023-11-12T20:17:40.469Z,55.75
2023-11-12T20:19:42.780Z,72.22
2023-11-12T20:21:46.534Z,60.65
2023-11-12T20:23:55.026Z,57.40
2023-11-12T20:25:58.352Z,58.67
2023-11-12T20:28:00.380Z,54.15
2023-11-12T20:30:02.049Z,54.83
2023-11-12T20:32:03.844Z,53.72
2023-11-12T20:34:05.512Z,72.47
2023-11-12T20:36:11.411Z,63.65
2023-11-12T20:38:14.104Z,65.88
2023-11-12T20:40:16.516Z,58.42
2023-11-12T20:42:18.091Z,63.83
2023-11-12T20:44:19.709Z,71.00
2023-11-12T20:46:21.213Z,63.50
2023-11-12T20:48:22.941Z,60.00
2023-11-12T20:50:24.596Z,77.00
2023-11-12T20:52:26.257Z,63.28
2023-11-12T20:54:27.788Z,59.83
2023-11-12T20:56:29.297Z,60.67
2023-11-12T20:58:34.130Z,62.70
2023-11-12T21:00:35.681Z,67.40
2023-11-12T21:02:37.962Z,51.17
2023-11-12T21:04:40.109Z,55.55
2023-11-12T21:06:42.055Z,48.03
2023-11-12T21:08:43.608Z,58.78
2023-11-12T21:10:45.109Z,54.33
2023-11-12T21:12:47.917Z,71.63
2023-11-12T21:14:49.713Z,61.80
2023-11-12T21:16:51.471Z,43.92
2023-11-12T21:18:55.517Z,73.95
2023-11-12T21:20:57.006Z,61.33
2023-11-12T21:22:59.264Z,64.28
2023-11-12T21:25:01.020Z,66.45
2023-11-12T21:27:02.591Z,63.50
2023-11-12T21:29:04.048Z,65.20
2023-11-12T21:31:06.853Z,62.90
2023-11-12T21:33:08.465Z,80.05
2023-11-12T21:35:10.434Z,58.22
2023-11-12T21:37:11.968Z,57.70
2023-11-12T21:39:17.975Z,53.42
2023-11-12T21:41:19.459Z,43.45
2023-11-12T21:43:20.992Z,31.77
2023-11-12T21:45:28.425Z,30.50
2023-11-12T21:47:30.201Z,36.05
2023-11-12T21:49:31.690Z,25.48
2023-11-12T21:51:33.428Z,44.53
2023-11-12T21:53:37.031Z,34.42
2023-11-12T21:55:38.929Z,29.25
2023-11-12T21:57:40.460Z,26.30
2023-11-12T21:59:44.662Z,49.40
2023-11-12T22:03:48.102Z,28.48
2023-11-12T22:05:49.677Z,33.28
2023-11-12T22:07:51.639Z,29.88
2023-11-12T22:09:53.147Z,23.65
2023-11-12T22:11:54.819Z,31.98
2023-11-12T22:13:57.044Z,53.78
2023-11-12T22:15:58.607Z,47.17
2023-11-12T22:18:00.273Z,49.97
2023-11-12T22:20:01.852Z,42.75
2023-11-12T22:22:03.954Z,40.38
2023-11-12T22:24:07.393Z,44.90
2023-11-12T22:26:08.890Z,59.53
2023-11-12T22:28:12.151Z,47.25
2023-11-12T22:30:15.040Z,56.83
2023-11-12T22:32:24.566Z,53.17
2023-11-12T22:34:28.849Z,61.80
2023-11-12T22:36:34.607Z,58.15
2023-11-12T22:38:38.865Z,44.38
2023-11-12T22:40:42.575Z,69.47
2023-11-12T22:42:46.243Z,71.03
2023-11-12T22:44:49.814Z,69.57
2023-11-12T22:46:53.715Z,63.83
2023-11-12T22:48:56.646Z,65.75
2023-11-12T22:51:00.598Z,53.63
2023-11-12T22:53:02.520Z,69.85
2023-11-12T22:55:06.187Z,43.95
2023-11-12T22:59:15.132Z,56.08
2023-11-12T23:01:17.301Z,50.90
2023-11-12T23:03:21.703Z,70.55
2023-11-12T23:05:25.451Z,72.35
2023-11-12T23:07:29.884Z,67.35
2023-11-12T23:09:33.305Z,72.75
2023-11-12T23:11:36.144Z,60.55
2023-11-12T23:13:38.011Z,53.67
2023-11-12T23:15:40.270Z,75.95
2023-11-12T23:17:41.949Z,78.63
2023-11-12T23:19:43.488Z,67.72
2023-11-12T23:21:44.978Z,72.80
2023-11-12T23:23:46.460Z,86.63
2023-11-12T23:25:47.927Z,82.03
2023-11-12T23:27:49.516Z,63.15
2023-11-12T23:29:50.985Z,67.90
2023-11-12T23:31:54.787Z,90.20
2023-11-12T23:33:56.384Z,86.95
2023-11-12T23:35:57.852Z,89.70
2023-11-12T23:37:59.965Z,89.07
2023-11-12T23:40:01.630Z,85.18
2023-11-12T23:42:04.380Z,104.22
2023-11-12T23:44:05.932Z,91.15
2023-11-12T23:46:07.406Z,88.22
2023-11-12T23:48:09.169Z,108.30
2023-11-12T23:50:10.999Z,77.00
2023-11-12T23:52:15.641Z,106.05
2023-11-12T23:54:17.502Z,106.88
2023-11-12T23:56:19.134Z,92.07
2023-11-12T23:58:20.736Z,100.68
